createdAt,value
2023-05-23T00:04:07.407Z,61.48
2023-05-23T00:09:08.826Z,61.07
2023-05-23T00:14:10.708Z,60.98
2023-05-23T00:19:15.032Z,60.72
2023-05-23T00:24:18.489Z,60.55
2023-05-23T00:29:20.459Z,60.48
2023-05-23T00:34:21.863Z,60.53
2023-05-23T00:39:23.227Z,60.26
2023-05-23T00:44:24.632Z,60.75
2023-05-23T00:49:28.083Z,60.60
2023-05-23T00:54:33.698Z,60.74
2023-05-23T00:59:36.971Z,61.21
2023-05-23T01:04:38.972Z,60.89
2023-05-23T01:09:40.522Z,60.87
2023-05-23T01:14:48.769Z,60.64
2023-05-23T01:20:02.465Z,60.56
2023-05-23T01:25:22.114Z,60.42
2023-05-23T01:30:26.215Z,60.40
2023-05-23T01:35:28.152Z,60.53
2023-05-23T01:40:29.683Z,60.15
2023-05-23T01:45:31.833Z,60.63
2023-05-23T01:50:34.082Z,60.47
2023-05-23T01:55:35.698Z,60.46
2023-05-23T02:00:37.143Z,61.07
2023-05-23T02:05:38.655Z,60.89
2023-05-23T02:10:40.331Z,61.37
2023-05-23T02:15:41.841Z,61.62
2023-05-23T02:20:43.724Z,61.57
2023-05-23T02:25:45.143Z,61.46
2023-05-23T02:30:46.686Z,61.47
2023-05-23T02:35:50.035Z,60.90
2023-05-23T02:40:53.484Z,60.54
2023-05-23T02:45:54.907Z,60.53
2023-05-23T02:50:56.415Z,60.41
2023-05-23T02:55:57.825Z,60.31
2023-05-23T03:00:59.234Z,60.00
2023-05-23T03:06:03.509Z,60.30
2023-05-23T03:11:05.090Z,60.29
2023-05-23T03:16:06.859Z,60.01
2023-05-23T03:21:09.686Z,60.00
2023-05-23T03:26:11.842Z,60.03
2023-05-23T03:31:13.383Z,59.52
2023-05-23T03:36:14.904Z,59.56
2023-05-23T03:41:16.522Z,60.09
2023-05-23T03:46:18.933Z,59.79
2023-05-23T03:51:20.940Z,60.19
2023-05-23T03:56:22.934Z,59.93
2023-05-23T04:01:25.079Z,59.98
2023-05-23T04:06:27.407Z,59.68
2023-05-23T04:11:29.033Z,59.21
2023-05-23T04:16:33.429Z,59.39
2023-05-23T04:21:35.081Z,59.44
2023-05-23T04:26:36.676Z,59.34
2023-05-23T04:31:38.235Z,59.29
2023-05-23T04:36:40.218Z,59.13
2023-05-23T04:41:42.378Z,59.09
2023-05-23T04:46:45.307Z,58.52
2023-05-23T04:51:46.942Z,57.85
2023-05-23T04:56:48.314Z,57.35
2023-05-23T05:01:49.717Z,56.90
2023-05-23T05:06:52.395Z,56.48
2023-05-23T05:11:53.794Z,56.34
2023-05-23T05:16:57.389Z,56.04
2023-05-23T05:22:00.154Z,56.14
2023-05-23T05:27:01.794Z,56.88
2023-05-23T05:32:03.377Z,56.40
2023-05-23T05:37:05.028Z,56.25
2023-05-23T05:42:06.498Z,56.05
2023-05-23T05:47:07.917Z,56.23
2023-05-23T05:52:09.387Z,55.60
2023-05-23T05:57:10.777Z,55.62
2023-05-23T06:02:12.331Z,55.64
2023-05-23T06:07:13.773Z,56.16
2023-05-23T06:12:15.174Z,56.02
2023-05-23T06:17:17.030Z,55.44
2023-05-23T06:22:18.570Z,55.21
2023-05-23T06:27:19.960Z,55.15
2023-05-23T06:32:21.345Z,55.23
2023-05-23T06:37:22.789Z,54.89
2023-05-23T06:42:24.180Z,55.05
2023-05-23T06:47:25.747Z,54.84
2023-05-23T06:52:27.147Z,54.86
2023-05-23T06:57:28.527Z,55.03
2023-05-23T07:02:29.941Z,55.30
2023-05-23T07:07:31.395Z,54.39
2023-05-23T07:12:34.851Z,53.47
2023-05-23T07:17:36.555Z,53.80
2023-05-23T07:22:37.984Z,53.88
2023-05-23T07:27:39.456Z,53.57
2023-05-23T07:32:42.096Z,53.52
2023-05-23T07:37:43.638Z,53.39
2023-05-23T07:42:45.288Z,52.70
2023-05-23T07:47:46.717Z,53.72
2023-05-23T07:52:48.121Z,53.37
2023-05-23T07:57:49.653Z,53.14
2023-05-23T08:02:51.199Z,52.72
2023-05-23T08:07:54.314Z,52.85
2023-05-23T08:12:55.798Z,53.00
2023-05-23T08:17:58.026Z,53.22
2023-05-23T08:23:02.521Z,53.14
2023-05-23T08:28:04.035Z,53.05
2023-05-23T08:33:05.617Z,52.32
2023-05-23T08:38:07.636Z,52.06
2023-05-23T08:43:10.359Z,51.98
2023-05-23T08:48:15.135Z,51.20
2023-05-23T08:53:20.596Z,50.79
2023-05-23T08:58:22.695Z,51.13
2023-05-23T09:03:26.759Z,51.17
2023-05-23T09:08:28.452Z,51.36
2023-05-23T09:13:31.272Z,51.15
2023-05-23T09:18:40.945Z,51.46
2023-05-23T09:23:42.671Z,51.68
2023-05-23T09:28:44.821Z,51.97
2023-05-23T09:33:48.138Z,52.25
2023-05-23T09:38:50.038Z,51.19
2023-05-23T09:43:54.996Z,51.29
2023-05-23T09:48:56.660Z,50.06
2023-05-23T09:53:58.261Z,49.82
2023-05-23T09:59:01.637Z,49.49
2023-05-23T10:04:04.882Z,49.72
2023-05-23T10:09:08.233Z,49.36
2023-05-23T10:14:10.712Z,49.21
2023-05-23T10:19:26.271Z,48.99
2023-05-23T10:24:27.884Z,48.58
2023-05-23T10:29:30.329Z,47.33
2023-05-23T10:34:47.458Z,47.02
2023-05-23T10:40:01.184Z,48.42
2023-05-23T10:45:22.484Z,49.33
2023-05-23T10:50:35.509Z,49.68
2023-05-23T10:55:37.562Z,49.58
2023-05-23T11:00:39.230Z,49.93
2023-05-23T11:05:52.427Z,49.64
2023-05-23T11:11:01.084Z,50.07
2023-05-23T11:16:26.247Z,49.31
2023-05-23T11:21:29.248Z,49.03
2023-05-23T11:26:32.089Z,49.03
2023-05-23T11:31:38.016Z,49.22
2023-05-23T11:36:40.597Z,48.62
2023-05-23T11:41:43.196Z,48.29
2023-05-23T11:46:59.418Z,47.59
2023-05-23T11:52:02.546Z,47.03
2023-05-23T11:57:04.568Z,45.81
2023-05-23T12:02:07.339Z,44.18
2023-05-23T12:07:08.776Z,43.17
2023-05-23T12:12:10.911Z,43.16
2023-05-23T12:17:13.701Z,43.20
2023-05-23T12:22:15.530Z,43.37
2023-05-23T12:27:18.557Z,42.43
2023-05-23T12:32:20.079Z,42.28
2023-05-23T12:37:21.998Z,43.25
2023-05-23T12:42:23.416Z,42.92
2023-05-23T12:47:24.841Z,42.69
2023-05-23T12:52:26.415Z,42.22
2023-05-23T12:57:27.794Z,42.83
2023-05-23T13:02:29.194Z,43.00
2023-05-23T13:07:30.827Z,42.75
2023-05-23T13:12:32.911Z,42.91
2023-05-23T13:17:34.519Z,42.83
2023-05-23T13:22:36.140Z,43.22
2023-05-23T13:27:37.534Z,43.54
2023-05-23T13:32:39.098Z,43.25
2023-05-23T13:37:40.862Z,42.54
2023-05-23T13:42:42.231Z,41.04
2023-05-23T13:47:44.338Z,41.17
2023-05-23T13:52:48.987Z,41.02
2023-05-23T13:57:50.766Z,40.65
2023-05-23T14:02:52.156Z,41.00
2023-05-23T14:07:53.589Z,40.51
2023-05-23T14:12:55.766Z,41.00
2023-05-23T14:17:57.321Z,41.97
2023-05-23T14:22:58.827Z,41.57
2023-05-23T14:28:00.408Z,41.31
2023-05-23T14:33:01.941Z,40.69
2023-05-23T14:38:03.384Z,39.37
2023-05-23T14:43:05.197Z,38.22
2023-05-23T14:48:06.896Z,38.57
2023-05-23T14:53:08.340Z,38.50
2023-05-23T14:58:09.743Z,39.25
2023-05-23T15:03:11.469Z,39.51
2023-05-23T15:08:12.954Z,39.68
2023-05-23T15:13:14.405Z,40.53
2023-05-23T15:18:27.859Z,41.14
2023-05-23T15:23:37.305Z,41.97
2023-05-23T15:28:38.827Z,42.39
2023-05-23T15:33:40.292Z,42.39
2023-05-23T15:38:41.759Z,42.80
2023-05-23T15:43:43.192Z,42.77
2023-05-23T15:48:44.570Z,42.78
2023-05-23T15:54:00.024Z,42.27
2023-05-23T15:59:02.278Z,41.96
2023-05-23T16:04:04.019Z,41.05
2023-05-23T16:09:05.671Z,40.33
2023-05-23T16:14:07.121Z,39.71
2023-05-23T16:19:08.547Z,39.50
2023-05-23T16:24:10.025Z,38.44
2023-05-23T16:29:12.235Z,37.85
2023-05-23T16:34:13.723Z,37.61
2023-05-23T16:39:16.078Z,36.52
2023-05-23T16:44:17.511Z,36.33
2023-05-23T16:49:18.930Z,35.71
2023-05-23T16:54:20.369Z,36.10
2023-05-23T16:59:21.760Z,35.88
2023-05-23T17:04:23.145Z,34.97
2023-05-23T17:09:24.698Z,34.35
2023-05-23T17:14:26.275Z,34.73
2023-05-23T17:19:27.689Z,34.92
2023-05-23T17:24:29.148Z,34.88
2023-05-23T17:29:30.610Z,35.02
2023-05-23T17:34:32.054Z,34.94
2023-05-23T17:39:33.533Z,35.68
2023-05-23T17:44:34.929Z,36.95
2023-05-23T17:49:38.620Z,36.96
2023-05-23T17:54:40.484Z,38.13
2023-05-23T17:59:42.050Z,38.12
2023-05-23T18:04:43.496Z,39.15
2023-05-23T18:09:46.394Z,39.63
2023-05-23T18:14:48.223Z,39.71
2023-05-23T18:19:49.648Z,40.22
2023-05-23T18:24:51.103Z,40.43
2023-05-23T18:29:52.496Z,41.07
2023-05-23T18:34:54.090Z,41.34
2023-05-23T18:39:58.063Z,41.58
2023-05-23T18:44:59.532Z,42.04
2023-05-23T18:50:01.148Z,42.42
2023-05-23T18:55:03.223Z,42.55
2023-05-23T19:00:05.662Z,42.73
2023-05-23T19:05:07.359Z,43.16
2023-05-23T19:10:09.118Z,43.04
2023-05-23T19:15:10.861Z,43.55
2023-05-23T19:20:13.691Z,43.46
2023-05-23T19:25:15.124Z,43.83
2023-05-23T19:30:16.667Z,44.23
2023-05-23T19:35:18.228Z,44.53
2023-05-23T19:40:21.711Z,44.53
2023-05-23T19:45:23.251Z,45.06
2023-05-23T19:50:24.700Z,45.25
2023-05-23T19:55:26.376Z,45.43
2023-05-23T20:00:27.942Z,45.75
2023-05-23T20:05:29.686Z,45.83
2023-05-23T20:10:31.094Z,45.71
2023-05-23T20:15:40.147Z,45.77
2023-05-23T20:20:42.276Z,46.00
2023-05-23T20:25:44.328Z,46.19
2023-05-23T20:30:46.008Z,46.34
2023-05-23T20:35:50.025Z,46.20
2023-05-23T20:40:52.658Z,46.05
2023-05-23T20:45:54.881Z,46.01
2023-05-23T20:50:57.197Z,45.84
2023-05-23T20:55:58.653Z,45.81
2023-05-23T21:01:00.178Z,46.07
2023-05-23T21:06:01.621Z,46.40
2023-05-23T21:11:03.053Z,46.35
2023-05-23T21:16:05.895Z,46.40
2023-05-23T21:21:07.271Z,46.49
2023-05-23T21:26:08.712Z,46.82
2023-05-23T21:31:10.148Z,46.77
2023-05-23T21:36:11.516Z,47.00
2023-05-23T21:41:12.889Z,47.45
2023-05-23T21:46:14.393Z,47.74
2023-05-23T21:51:16.097Z,47.96
2023-05-23T21:56:17.484Z,48.21
2023-05-23T22:01:18.899Z,48.31
2023-05-23T22:06:20.299Z,48.37
2023-05-23T22:11:21.723Z,48.53
2023-05-23T22:16:23.202Z,48.74
2023-05-23T22:21:25.789Z,49.42
2023-05-23T22:26:27.343Z,49.20
2023-05-23T22:31:29.158Z,49.46
2023-05-23T22:36:33.343Z,49.50
2023-05-23T22:41:35.815Z,49.46
2023-05-23T22:46:39.379Z,50.14
2023-05-23T22:51:42.070Z,50.40
2023-05-23T22:56:43.501Z,50.66
2023-05-23T23:01:44.946Z,50.95
2023-05-23T23:06:46.321Z,50.98
2023-05-23T23:11:47.706Z,50.90
2023-05-23T23:16:49.760Z,51.06
2023-05-23T23:21:51.728Z,51.03
2023-05-23T23:26:53.151Z,51.24
2023-05-23T23:31:57.346Z,51.45
2023-05-23T23:36:58.844Z,51.70
2023-05-23T23:42:00.362Z,52.12
2023-05-23T23:47:01.813Z,52.25
2023-05-23T23:52:03.802Z,52.09
2023-05-23T23:57:06.623Z,52.28
